createdAt,value
2023-03-17T00:04:24.210Z,99778.28
2023-03-17T00:09:28.956Z,99782.25
2023-03-17T00:14:32.154Z,99779.22
2023-03-17T00:19:36.590Z,99777.91
2023-03-17T00:24:41.242Z,99778.56
2023-03-17T00:29:44.455Z,99785.22
2023-03-17T00:34:47.878Z,99784.09
2023-03-17T00:39:52.494Z,99770.38
2023-03-17T00:44:55.725Z,99776.16
2023-03-17T00:49:58.947Z,99773.78
2023-03-17T00:55:03.684Z,99766.53
2023-03-17T01:00:14.818Z,99776.94
2023-03-17T01:05:18.356Z,99787.03
2023-03-17T01:10:25.876Z,99773.56
2023-03-17T01:15:31.673Z,99774.19
2023-03-17T01:20:35.886Z,99776.97
2023-03-17T01:25:42.849Z,99774.13
2023-03-17T01:30:47.089Z,99769.81
2023-03-17T01:35:52.137Z,99783.91
2023-03-17T01:40:56.879Z,99775.41
2023-03-17T01:46:29.335Z,99767.91
2023-03-17T01:51:35.957Z,99753.88
2023-03-17T01:56:43.376Z,99766.50
2023-03-17T02:01:50.095Z,99759.81
2023-03-17T02:06:58.488Z,99767.75
2023-03-17T02:12:05.364Z,99769.75
2023-03-17T02:17:08.865Z,99769.25
2023-03-17T02:22:13.889Z,99772.09
2023-03-17T02:27:19.412Z,99763.88
2023-03-17T02:32:22.777Z,99762.91
2023-03-17T02:37:27.306Z,99772.47
2023-03-17T02:42:30.746Z,99750.00
2023-03-17T02:47:33.987Z,99743.28
2023-03-17T02:52:38.511Z,99742.31
2023-03-17T02:57:42.022Z,99750.44
2023-03-17T03:02:45.167Z,99772.53
2023-03-17T03:07:49.698Z,99764.63
2023-03-17T03:12:52.988Z,99800.91
2023-03-17T03:17:56.116Z,99795.63
2023-03-17T03:23:00.702Z,99786.16
2023-03-17T03:28:03.855Z,99784.69
2023-03-17T03:33:07.060Z,99792.31
2023-03-17T03:38:12.585Z,99785.88
2023-03-17T03:43:23.380Z,99788.94
2023-03-17T03:48:27.075Z,99796.88
2023-03-17T03:53:32.083Z,99809.81
2023-03-17T03:58:34.954Z,99814.88
2023-03-17T04:03:38.212Z,99822.19
2023-03-17T04:08:42.757Z,99816.88
2023-03-17T04:13:45.957Z,99809.31
2023-03-17T04:18:49.151Z,99823.41
2023-03-17T04:23:53.784Z,99831.72
2023-03-17T04:28:56.941Z,99835.03
2023-03-17T04:34:00.117Z,99842.88
2023-03-17T04:39:04.819Z,99847.06
2023-03-17T04:44:08.867Z,99843.50
2023-03-17T04:49:12.155Z,99840.28
2023-03-17T04:54:16.706Z,99840.50
2023-03-17T04:59:19.863Z,99837.34
2023-03-17T05:04:31.062Z,99839.13
2023-03-17T05:09:36.474Z,99839.81
2023-03-17T05:14:39.782Z,99864.69
2023-03-17T05:19:43.268Z,99866.31
2023-03-17T05:24:48.029Z,99870.38
2023-03-17T05:29:51.128Z,99868.38
2023-03-17T05:34:54.565Z,99857.88
2023-03-17T05:39:59.589Z,99857.38
2023-03-17T05:45:02.442Z,99856.34
2023-03-17T05:50:08.171Z,99862.72
2023-03-17T05:55:13.254Z,99856.44
2023-03-17T06:00:17.054Z,99865.88
2023-03-17T06:05:20.226Z,99863.03
2023-03-17T06:10:25.173Z,99876.81
2023-03-17T06:15:29.249Z,99878.84
2023-03-17T06:20:32.887Z,99886.06
2023-03-17T06:25:37.676Z,99878.31
2023-03-17T06:30:41.073Z,99876.28
2023-03-17T06:35:44.303Z,99898.66
2023-03-17T06:40:49.072Z,99899.63
2023-03-17T06:45:52.946Z,99901.22
2023-03-17T06:50:56.523Z,99904.06
2023-03-17T06:56:01.217Z,99913.00
2023-03-17T07:01:04.455Z,99920.81
2023-03-17T07:06:08.879Z,99932.31
2023-03-17T07:11:13.507Z,99926.00
2023-03-17T07:16:19.818Z,99925.53
2023-03-17T07:21:23.050Z,99921.78
2023-03-17T07:26:27.816Z,99933.03
2023-03-17T07:31:31.143Z,99933.88
2023-03-17T07:36:34.453Z,99948.56
2023-03-17T07:41:39.076Z,99944.13
2023-03-17T07:46:42.784Z,99938.75
2023-03-17T07:51:45.982Z,99957.59
2023-03-17T07:56:50.651Z,99961.09
2023-03-17T08:01:53.931Z,99967.31
2023-03-17T08:06:57.408Z,99976.03
2023-03-17T08:12:02.210Z,99968.16
2023-03-17T08:17:05.496Z,99989.66
2023-03-17T08:22:09.149Z,99998.69
2023-03-17T08:27:14.313Z,99994.19
2023-03-17T08:32:17.654Z,99987.94
2023-03-17T08:37:20.867Z,99985.75
2023-03-17T08:42:25.530Z,99998.66
2023-03-17T08:47:28.783Z,99986.84
2023-03-17T08:52:32.653Z,99985.50
2023-03-17T08:57:37.513Z,99983.25
2023-03-17T09:02:43.306Z,99979.19
2023-03-17T09:07:46.809Z,99982.59
2023-03-17T09:12:51.843Z,99981.63
2023-03-17T09:17:55.254Z,99989.69
2023-03-17T09:22:58.537Z,99982.06
2023-03-17T09:28:03.891Z,99974.78
2023-03-17T09:33:07.145Z,99977.88
2023-03-17T09:38:11.414Z,99948.47
2023-03-17T09:43:27.597Z,99967.69
2023-03-17T09:48:42.055Z,99967.88
2023-03-17T09:53:52.980Z,99978.50
2023-03-17T09:59:01.339Z,99982.63
2023-03-17T10:04:04.844Z,100002.81
2023-03-17T10:09:19.941Z,100008.69
2023-03-17T10:14:39.901Z,100002.72
2023-03-17T10:19:47.435Z,100007.53
2023-03-17T10:24:54.000Z,100008.28
2023-03-17T10:29:58.617Z,100015.78
2023-03-17T10:35:02.752Z,100022.09
2023-03-17T10:40:10.605Z,100028.16
2023-03-17T10:45:18.095Z,100029.78
2023-03-17T10:50:24.875Z,100038.34
2023-03-17T10:55:32.751Z,100046.09
2023-03-17T11:00:39.321Z,100044.28
2023-03-17T11:05:55.321Z,100045.50
2023-03-17T11:10:58.548Z,100064.38
2023-03-17T11:16:11.931Z,100065.38
2023-03-17T11:21:21.712Z,100087.59
2023-03-17T11:26:40.270Z,100107.75
2023-03-17T11:31:53.148Z,100114.38
2023-03-17T11:37:07.063Z,100112.59
2023-03-17T11:42:17.335Z,100116.38
2023-03-17T11:47:43.085Z,100123.00
2023-03-17T11:53:00.682Z,100127.38
2023-03-17T11:58:09.720Z,100119.13
2023-03-17T12:03:22.380Z,100121.38
2023-03-17T12:08:31.525Z,100120.34
2023-03-17T12:13:40.372Z,100127.25
2023-03-17T12:18:54.737Z,100124.00
2023-03-17T12:24:03.353Z,100116.28
2023-03-17T12:29:14.285Z,100128.16
2023-03-17T12:34:24.364Z,100135.69
2023-03-17T12:39:33.882Z,100135.53
2023-03-17T12:45:01.303Z,100137.25
2023-03-17T12:50:28.693Z,100140.59
2023-03-17T12:55:36.335Z,100150.19
2023-03-17T13:00:51.044Z,100145.81
2023-03-17T13:06:01.027Z,100139.81
2023-03-17T13:11:21.339Z,100140.78
2023-03-17T13:16:29.947Z,100138.41
2023-03-17T13:21:36.534Z,100141.31
2023-03-17T13:26:55.445Z,100129.78
2023-03-17T13:32:31.991Z,100111.72
2023-03-17T13:37:46.436Z,100113.88
2023-03-17T13:43:09.717Z,100096.88
2023-03-17T13:48:36.485Z,100086.31
2023-03-17T13:53:43.230Z,100097.53
2023-03-17T13:59:06.553Z,100103.97
2023-03-17T14:04:20.983Z,100103.88
2023-03-17T14:09:38.769Z,100107.38
2023-03-17T14:14:53.823Z,100095.56
2023-03-17T14:20:08.323Z,100092.50
2023-03-17T14:25:18.359Z,100092.78
2023-03-17T14:30:23.434Z,100081.88
2023-03-17T14:35:30.829Z,100075.72
2023-03-17T14:40:37.090Z,100065.03
2023-03-17T14:45:53.714Z,100057.31
2023-03-17T14:51:05.321Z,100071.19
2023-03-17T14:56:10.637Z,100066.75
2023-03-17T15:01:17.914Z,100068.97
2023-03-17T15:06:26.167Z,100074.13
2023-03-17T15:11:40.131Z,100075.75
2023-03-17T15:16:46.993Z,100084.75
2023-03-17T15:21:50.757Z,100086.41
2023-03-17T15:27:02.837Z,100086.25
2023-03-17T15:32:13.059Z,100083.03
2023-03-17T15:37:18.535Z,100081.53
2023-03-17T15:42:25.783Z,100099.78
2023-03-17T15:47:30.781Z,100118.09
2023-03-17T15:52:34.533Z,100132.84
2023-03-17T15:57:39.084Z,100135.03
2023-03-17T16:02:42.976Z,100137.63
2023-03-17T16:07:47.041Z,100143.00
2023-03-17T16:12:52.402Z,100142.22
2023-03-17T16:17:58.483Z,100143.16
2023-03-17T16:23:08.584Z,100136.25
2023-03-17T16:28:18.274Z,100137.19
2023-03-17T16:33:23.942Z,100130.56
2023-03-17T16:38:30.046Z,100122.44
2023-03-17T16:43:37.963Z,100120.47
2023-03-17T16:48:41.162Z,100123.25
2023-03-17T16:53:44.614Z,100106.63
2023-03-17T16:58:49.739Z,100128.63
2023-03-17T17:03:53.175Z,100163.78
2023-03-17T17:08:56.346Z,100167.31
2023-03-17T17:14:01.022Z,100172.53
2023-03-17T17:19:05.048Z,100179.28
2023-03-17T17:24:11.778Z,100177.59
2023-03-17T17:29:16.358Z,100181.94
2023-03-17T17:34:19.487Z,100178.91
2023-03-17T17:39:22.595Z,100186.34
2023-03-17T17:44:27.301Z,100195.69
2023-03-17T17:49:30.481Z,100201.81
2023-03-17T17:54:34.788Z,100206.19
2023-03-17T17:59:39.429Z,100208.38
2023-03-17T18:04:42.689Z,100204.91
2023-03-17T18:09:45.909Z,100210.88
2023-03-17T18:14:50.490Z,100216.41
2023-03-17T18:19:54.049Z,100225.47
2023-03-17T18:24:57.215Z,100232.78
2023-03-17T18:30:02.036Z,100241.31
2023-03-17T18:35:09.480Z,100237.34
2023-03-17T18:40:17.271Z,100239.81
2023-03-17T18:45:23.926Z,100238.38
2023-03-17T18:50:27.561Z,100234.78
2023-03-17T18:55:30.766Z,100233.31
2023-03-17T19:00:35.568Z,100232.81
2023-03-17T19:05:39.823Z,100231.41
2023-03-17T19:10:44.308Z,100240.31
2023-03-17T19:15:48.950Z,100251.19
2023-03-17T19:20:52.746Z,100250.50
2023-03-17T19:25:56.061Z,100259.81
2023-03-17T19:31:00.825Z,100263.72
2023-03-17T19:36:08.755Z,100268.81
2023-03-17T19:41:12.174Z,100277.66
2023-03-17T19:46:16.823Z,100273.75
2023-03-17T19:51:20.155Z,100290.66
2023-03-17T19:56:23.756Z,100285.28
2023-03-17T20:01:29.418Z,100280.16
2023-03-17T20:06:32.712Z,100286.13
2023-03-17T20:11:36.283Z,100282.94
2023-03-17T20:16:41.560Z,100294.53
2023-03-17T20:21:45.022Z,100300.28
2023-03-17T20:26:49.685Z,100297.72
2023-03-17T20:31:54.340Z,100300.00
2023-03-17T20:36:57.598Z,100295.09
2023-03-17T20:42:01.780Z,100307.19
2023-03-17T20:47:06.527Z,100313.09
2023-03-17T20:52:13.679Z,100307.78
2023-03-17T20:57:16.968Z,100318.72
2023-03-17T21:02:23.452Z,100327.34
2023-03-17T21:07:26.598Z,100329.38
2023-03-17T21:12:29.942Z,100329.28
2023-03-17T21:17:34.868Z,100331.16
2023-03-17T21:22:38.216Z,100331.94
2023-03-17T21:27:42.197Z,100334.13
2023-03-17T21:32:46.967Z,100332.09
2023-03-17T21:37:50.776Z,100341.81
2023-03-17T21:42:54.451Z,100339.50
2023-03-17T21:47:59.076Z,100355.41
2023-03-17T21:53:02.346Z,100351.75
2023-03-17T21:58:05.588Z,100362.78
2023-03-17T22:03:10.415Z,100364.09
2023-03-17T22:08:13.731Z,100369.72
2023-03-17T22:13:17.129Z,100367.97
2023-03-17T22:18:22.174Z,100363.88
2023-03-17T22:23:25.839Z,100367.88
2023-03-17T22:28:29.333Z,100368.28
2023-03-17T22:33:34.476Z,100373.16
2023-03-17T22:38:38.041Z,100372.25
2023-03-17T22:43:41.925Z,100366.41
2023-03-17T22:48:47.454Z,100357.81
2023-03-17T22:53:51.443Z,100360.34
2023-03-17T22:58:54.975Z,100361.84
2023-03-17T23:03:59.738Z,100356.41
2023-03-17T23:09:03.173Z,100360.34
2023-03-17T23:14:06.448Z,100361.91
2023-03-17T23:19:11.007Z,100370.38
2023-03-17T23:24:14.457Z,100375.31
2023-03-17T23:29:17.826Z,100376.47
2023-03-17T23:34:22.634Z,100391.91
2023-03-17T23:39:26.016Z,100394.16
2023-03-17T23:44:29.284Z,100408.16
2023-03-17T23:49:33.907Z,100411.38
2023-03-17T23:54:38.920Z,100416.44
2023-03-17T23:59:42.024Z,100402.31
